createdAt,value
2023-05-19T00:00:13.576Z,9.61
2023-05-19T00:00:47.811Z,9.63
2023-05-19T00:01:18.448Z,9.60
2023-05-19T00:01:50.898Z,9.60
2023-05-19T00:02:23.415Z,9.63
2023-05-19T00:02:55.924Z,9.64
2023-05-19T00:03:28.336Z,9.61
2023-05-19T00:04:00.682Z,9.64
2023-05-19T00:04:33.176Z,9.64
2023-05-19T00:05:05.606Z,9.66
2023-05-19T00:05:38.106Z,9.66
2023-05-19T00:06:10.673Z,9.67
2023-05-19T00:06:43.078Z,9.64
2023-05-19T00:07:15.506Z,9.66
2023-05-19T00:07:48.038Z,9.66
2023-05-19T00:08:20.495Z,9.66
2023-05-19T00:08:52.964Z,9.63
2023-05-19T00:09:25.408Z,9.63
2023-05-19T00:09:57.932Z,9.63
2023-05-19T00:10:30.635Z,9.64
2023-05-19T00:11:02.891Z,9.61
2023-05-19T00:11:35.344Z,9.64
2023-05-19T00:12:07.779Z,9.61
2023-05-19T00:12:40.232Z,9.61
2023-05-19T00:13:12.689Z,9.61
2023-05-19T00:13:45.109Z,9.60
2023-05-19T00:14:17.533Z,9.60
2023-05-19T00:14:50.013Z,9.58
2023-05-19T00:15:22.457Z,9.60
2023-05-19T00:15:54.971Z,9.60
2023-05-19T00:16:27.521Z,9.60
2023-05-19T00:16:59.857Z,9.60
2023-05-19T00:17:32.328Z,9.58
2023-05-19T00:18:04.793Z,9.58
2023-05-19T00:18:37.299Z,9.58
2023-05-19T00:19:09.924Z,9.57
2023-05-19T00:19:42.196Z,9.53
2023-05-19T00:20:14.679Z,9.56
2023-05-19T00:20:47.165Z,9.56
2023-05-19T00:21:19.630Z,9.56
2023-05-19T00:21:52.090Z,9.53
2023-05-19T00:22:24.634Z,9.52
2023-05-19T00:22:57.075Z,9.52
2023-05-19T00:23:29.535Z,9.50
2023-05-19T00:24:02.001Z,9.52
2023-05-19T00:24:34.433Z,9.52
2023-05-19T00:25:07.133Z,9.49
2023-05-19T00:25:39.626Z,9.52
2023-05-19T00:26:12.098Z,9.50
2023-05-19T00:26:44.597Z,9.50
2023-05-19T00:27:17.072Z,9.48
2023-05-19T00:27:49.525Z,9.48
2023-05-19T00:28:22.025Z,9.46
2023-05-19T00:28:54.452Z,9.45
2023-05-19T00:29:26.966Z,9.43
2023-05-19T00:29:59.500Z,9.40
2023-05-19T00:30:32.213Z,9.35
2023-05-19T00:31:04.403Z,9.35
2023-05-19T00:31:36.869Z,9.31
2023-05-19T00:32:09.532Z,9.28
2023-05-19T00:32:41.852Z,9.25
2023-05-19T00:33:14.318Z,9.21
2023-05-19T00:33:46.754Z,9.15
2023-05-19T00:34:19.245Z,9.09
2023-05-19T00:34:51.776Z,9.04
2023-05-19T00:35:24.319Z,8.99
2023-05-19T00:35:56.787Z,8.97
2023-05-19T00:36:29.276Z,8.97
2023-05-19T00:37:01.740Z,8.97
2023-05-19T00:37:34.301Z,8.99
2023-05-19T00:38:06.901Z,9.01
2023-05-19T00:38:39.350Z,8.97
2023-05-19T00:39:11.782Z,8.94
2023-05-19T00:39:44.233Z,8.93
2023-05-19T00:40:16.690Z,8.91
2023-05-19T00:40:49.167Z,8.88
2023-05-19T00:41:21.658Z,8.84
2023-05-19T00:41:54.105Z,8.79
2023-05-19T00:42:26.643Z,8.76
2023-05-19T00:42:59.152Z,8.79
2023-05-19T00:43:31.650Z,8.78
2023-05-19T00:44:04.131Z,8.81
2023-05-19T00:44:36.589Z,8.81
2023-05-19T00:45:09.090Z,8.84
2023-05-19T00:45:41.629Z,8.84
2023-05-19T00:46:14.140Z,8.81
2023-05-19T00:46:46.701Z,8.75
2023-05-19T00:47:19.046Z,8.71
2023-05-19T00:47:51.573Z,8.68
2023-05-19T00:48:23.988Z,8.68
2023-05-19T00:48:56.547Z,8.65
2023-05-19T00:49:28.973Z,8.68
2023-05-19T00:50:01.439Z,8.68
2023-05-19T00:50:34.180Z,8.69
2023-05-19T00:51:14.047Z,8.65
2023-05-19T00:51:46.474Z,8.63
2023-05-19T00:52:18.929Z,8.63
2023-05-19T00:52:51.362Z,8.63
2023-05-19T00:53:23.822Z,8.60
2023-05-19T00:53:56.264Z,8.60
2023-05-19T00:54:28.689Z,8.55
2023-05-19T00:55:01.148Z,8.55
2023-05-19T00:55:33.599Z,8.54
2023-05-19T00:56:06.068Z,8.53
2023-05-19T00:56:38.518Z,8.54
2023-05-19T00:57:10.934Z,8.54
2023-05-19T00:57:43.381Z,8.53
2023-05-19T00:58:15.857Z,8.50
2023-05-19T00:58:48.349Z,8.45
2023-05-19T00:59:20.796Z,8.39
2023-05-19T00:59:53.199Z,8.33
2023-05-19T01:00:25.654Z,8.32
2023-05-19T01:00:58.166Z,8.28
2023-05-19T01:01:30.599Z,8.22
2023-05-19T01:02:03.069Z,8.22
2023-05-19T01:02:35.634Z,8.18
2023-05-19T01:03:08.110Z,8.14
2023-05-19T01:03:40.575Z,8.11
2023-05-19T01:04:12.960Z,8.08
2023-05-19T01:04:45.405Z,8.07
2023-05-19T01:05:24.936Z,8.03
2023-05-19T01:05:57.453Z,8.02
2023-05-19T01:06:29.859Z,7.99
2023-05-19T01:07:02.458Z,7.97
2023-05-19T01:07:34.775Z,7.94
2023-05-19T01:08:07.240Z,7.96
2023-05-19T01:08:39.670Z,7.99
2023-05-19T01:09:12.110Z,8.00
2023-05-19T01:09:44.554Z,8.00
2023-05-19T01:10:17.030Z,8.03
2023-05-19T01:10:49.452Z,8.07
2023-05-19T01:11:21.883Z,8.08
2023-05-19T01:11:54.369Z,8.07
2023-05-19T01:12:26.841Z,8.04
2023-05-19T01:12:59.281Z,8.02
2023-05-19T01:13:31.729Z,8.00
2023-05-19T01:14:04.176Z,7.96
2023-05-19T01:14:36.592Z,7.93
2023-05-19T01:15:09.028Z,7.89
2023-05-19T01:15:41.474Z,7.87
2023-05-19T01:16:13.968Z,7.84
2023-05-19T01:16:46.466Z,7.82
2023-05-19T01:17:18.802Z,7.78
2023-05-19T01:17:51.286Z,7.77
2023-05-19T01:18:23.674Z,7.74
2023-05-19T01:18:56.324Z,7.69
2023-05-19T01:19:28.535Z,7.69
2023-05-19T01:20:01.007Z,7.67
2023-05-19T01:20:33.645Z,7.67
2023-05-19T01:21:05.944Z,7.63
2023-05-19T01:21:38.377Z,7.59
2023-05-19T01:22:10.841Z,7.59
2023-05-19T01:22:43.350Z,7.58
2023-05-19T01:23:15.801Z,7.56
2023-05-19T01:23:48.222Z,7.52
2023-05-19T01:24:20.690Z,7.49
2023-05-19T01:24:53.069Z,7.49
2023-05-19T01:25:25.554Z,7.49
2023-05-19T01:25:57.977Z,7.47
2023-05-19T01:26:30.415Z,7.42
2023-05-19T01:27:02.836Z,7.40
2023-05-19T01:27:35.255Z,7.37
2023-05-19T01:28:07.677Z,7.37
2023-05-19T01:28:40.140Z,7.34
2023-05-19T01:29:12.542Z,7.29
2023-05-19T01:29:44.966Z,7.31
2023-05-19T01:30:17.405Z,7.27
2023-05-19T01:30:49.839Z,7.29
2023-05-19T01:31:22.319Z,7.27
2023-05-19T01:31:54.785Z,7.29
2023-05-19T01:32:27.168Z,7.27
2023-05-19T01:32:59.637Z,7.29
2023-05-19T01:33:32.015Z,7.29
2023-05-19T01:34:04.469Z,7.27
2023-05-19T01:34:36.904Z,7.24
2023-05-19T01:35:09.317Z,7.26
2023-05-19T01:35:41.754Z,7.23
2023-05-19T01:36:14.239Z,7.22
2023-05-19T01:36:46.673Z,7.22
2023-05-19T01:37:19.134Z,7.20
2023-05-19T01:37:51.604Z,7.17
2023-05-19T01:38:24.063Z,7.17
2023-05-19T01:38:56.515Z,7.15
2023-05-19T01:39:28.967Z,7.15
2023-05-19T01:40:01.410Z,7.13
2023-05-19T01:40:34.037Z,7.13
2023-05-19T01:41:06.332Z,7.09
2023-05-19T01:41:38.753Z,7.08
2023-05-19T01:42:11.169Z,7.09
2023-05-19T01:42:43.593Z,7.07
2023-05-19T01:43:16.002Z,7.05
2023-05-19T01:43:48.448Z,7.02
2023-05-19T01:44:20.859Z,7.02
2023-05-19T01:44:53.300Z,7.02
2023-05-19T01:45:25.786Z,7.02
2023-05-19T01:45:58.222Z,7.02
2023-05-19T01:46:30.739Z,7.01
2023-05-19T01:47:03.072Z,7.02
2023-05-19T01:47:35.527Z,6.99
2023-05-19T01:48:10.100Z,6.98
2023-05-19T01:48:40.478Z,6.97
2023-05-19T01:49:12.918Z,6.97
2023-05-19T01:49:45.388Z,6.91
2023-05-19T01:50:17.845Z,6.94
2023-05-19T01:50:50.277Z,6.91
2023-05-19T01:51:22.727Z,6.94
2023-05-19T01:51:55.179Z,6.94
2023-05-19T01:52:27.613Z,6.95
2023-05-19T01:53:00.046Z,6.95
2023-05-19T01:53:32.498Z,6.97
2023-05-19T01:54:04.925Z,6.97
2023-05-19T01:54:37.367Z,6.95
2023-05-19T01:55:09.818Z,6.95
2023-05-19T01:55:42.211Z,6.95
2023-05-19T01:56:14.657Z,6.95
2023-05-19T01:56:47.134Z,6.98
2023-05-19T01:57:19.528Z,6.95
2023-05-19T01:57:51.986Z,6.95
2023-05-19T01:58:24.445Z,6.94
2023-05-19T01:58:56.877Z,6.91
2023-05-19T01:59:29.323Z,6.89
2023-05-19T02:00:01.762Z,6.89
2023-05-19T02:00:34.369Z,6.86
2023-05-19T02:01:06.655Z,6.87
2023-05-19T02:01:39.129Z,6.87
2023-05-19T02:02:11.530Z,6.87
2023-05-19T02:02:44.025Z,6.87
2023-05-19T02:03:16.417Z,6.84
2023-05-19T02:03:48.845Z,6.81
2023-05-19T02:04:21.267Z,6.80
2023-05-19T02:04:53.746Z,6.79
2023-05-19T02:05:26.154Z,6.79
2023-05-19T02:05:58.552Z,6.79
2023-05-19T02:06:30.990Z,6.79
2023-05-19T02:07:03.453Z,6.79
2023-05-19T02:07:35.906Z,6.81
2023-05-19T02:08:08.375Z,6.84
2023-05-19T02:08:40.815Z,6.87
2023-05-19T02:09:13.267Z,6.89
2023-05-19T02:09:45.654Z,6.89
2023-05-19T02:10:18.106Z,6.89
2023-05-19T02:10:50.590Z,6.87
2023-05-19T02:11:23.134Z,6.84
2023-05-19T02:11:55.536Z,6.84
2023-05-19T02:12:27.971Z,6.83
2023-05-19T02:13:00.431Z,6.81
2023-05-19T02:13:32.896Z,6.79
2023-05-19T02:14:05.435Z,6.79
2023-05-19T02:14:37.907Z,6.79
2023-05-19T02:15:10.461Z,6.81
2023-05-19T02:15:42.992Z,6.80
2023-05-19T02:16:15.395Z,6.79
2023-05-19T02:16:47.791Z,6.77
2023-05-19T02:17:20.270Z,6.79
2023-05-19T02:17:52.735Z,6.79
2023-05-19T02:18:25.147Z,6.79
2023-05-19T02:18:57.642Z,6.76
2023-05-19T02:19:30.059Z,6.72
2023-05-19T02:20:02.448Z,6.69
2023-05-19T02:20:35.055Z,6.69
2023-05-19T02:21:07.315Z,6.69
2023-05-19T02:21:39.742Z,6.72
2023-05-19T02:22:12.184Z,6.76
2023-05-19T02:22:44.617Z,6.76
2023-05-19T02:23:17.027Z,6.76
2023-05-19T02:23:49.454Z,6.83
2023-05-19T02:24:21.880Z,6.84
2023-05-19T02:24:54.312Z,6.81
2023-05-19T02:25:26.741Z,6.81
2023-05-19T02:25:59.164Z,6.87
2023-05-19T02:26:31.618Z,6.91
2023-05-19T02:27:04.075Z,6.95
2023-05-19T02:27:36.516Z,6.94
2023-05-19T02:28:08.945Z,6.94
2023-05-19T02:28:41.385Z,6.89
2023-05-19T02:29:13.832Z,6.89
2023-05-19T02:29:46.320Z,6.87
2023-05-19T02:30:18.761Z,6.90
2023-05-19T02:30:51.262Z,6.86
2023-05-19T02:31:23.704Z,6.86
2023-05-19T02:31:56.154Z,6.84
2023-05-19T02:32:28.673Z,6.81
2023-05-19T02:33:01.256Z,6.80
2023-05-19T02:33:33.655Z,6.80
2023-05-19T02:34:06.067Z,6.73
2023-05-19T02:34:38.505Z,6.77
2023-05-19T02:35:10.950Z,6.76
2023-05-19T02:35:43.390Z,6.72
2023-05-19T02:36:15.837Z,6.71
2023-05-19T02:36:48.288Z,6.69
2023-05-19T02:37:20.748Z,6.69
2023-05-19T02:37:53.204Z,6.69
2023-05-19T02:38:25.653Z,6.66
2023-05-19T02:38:58.059Z,6.66
2023-05-19T02:39:30.507Z,6.65
2023-05-19T02:40:02.957Z,6.65
2023-05-19T02:40:35.410Z,6.65
2023-05-19T02:41:07.882Z,6.61
2023-05-19T02:41:40.357Z,6.61
2023-05-19T02:42:12.794Z,6.61
2023-05-19T02:42:45.268Z,6.58
2023-05-19T02:43:17.712Z,6.58
2023-05-19T02:43:50.125Z,6.54
2023-05-19T02:44:22.549Z,6.56
2023-05-19T02:44:55.026Z,6.53
2023-05-19T02:45:27.475Z,6.51
2023-05-19T02:46:00.011Z,6.48
2023-05-19T02:46:32.559Z,6.48
2023-05-19T02:47:04.851Z,6.47
2023-05-19T02:47:37.391Z,6.47
2023-05-19T02:48:09.762Z,6.47
2023-05-19T02:48:42.188Z,6.44
2023-05-19T02:49:14.647Z,6.44
2023-05-19T02:49:47.060Z,6.41
2023-05-19T02:50:19.498Z,6.40
2023-05-19T02:50:52.010Z,6.38
2023-05-19T02:51:24.454Z,6.41
2023-05-19T02:51:56.922Z,6.46
2023-05-19T02:52:29.365Z,6.50
2023-05-19T02:53:01.793Z,6.53
2023-05-19T02:53:34.212Z,6.51
2023-05-19T02:54:06.690Z,6.53
2023-05-19T02:54:39.126Z,6.51
2023-05-19T02:55:11.585Z,6.51
2023-05-19T02:55:44.030Z,6.47
2023-05-19T02:56:16.490Z,6.47
2023-05-19T02:56:48.934Z,6.41
2023-05-19T02:57:21.351Z,6.43
2023-05-19T02:57:53.755Z,6.40
2023-05-19T02:58:26.215Z,6.41
2023-05-19T02:58:58.704Z,6.40
2023-05-19T02:59:31.135Z,6.41
2023-05-19T03:00:03.651Z,6.44
2023-05-19T03:00:36.040Z,6.50
2023-05-19T03:01:08.487Z,6.58
2023-05-19T03:01:40.929Z,6.59
2023-05-19T03:02:13.419Z,6.59
2023-05-19T03:02:45.834Z,6.58
2023-05-19T03:03:18.346Z,6.58
2023-05-19T03:03:50.831Z,6.58
2023-05-19T03:04:23.168Z,6.56
2023-05-19T03:04:55.635Z,6.53
2023-05-19T03:05:28.062Z,6.53
2023-05-19T03:06:00.555Z,6.51
2023-05-19T03:06:32.977Z,6.50
2023-05-19T03:07:05.431Z,6.48
2023-05-19T03:07:37.856Z,6.47
2023-05-19T03:08:10.335Z,6.44
2023-05-19T03:08:42.763Z,6.41
2023-05-19T03:09:15.277Z,6.40
2023-05-19T03:09:47.685Z,6.38
2023-05-19T03:10:20.138Z,6.36
2023-05-19T03:10:52.532Z,6.36
2023-05-19T03:11:25.020Z,6.36
2023-05-19T03:11:57.491Z,6.35
2023-05-19T03:12:29.907Z,6.33
2023-05-19T03:13:02.343Z,6.33
2023-05-19T03:13:34.761Z,6.36
2023-05-19T03:14:07.272Z,6.38
2023-05-19T03:14:39.720Z,6.38
2023-05-19T03:15:12.151Z,6.33
2023-05-19T03:15:44.589Z,6.33
2023-05-19T03:16:17.044Z,6.30
2023-05-19T03:16:49.592Z,6.32
2023-05-19T03:17:22.067Z,6.30
2023-05-19T03:17:54.476Z,6.29
2023-05-19T03:18:26.896Z,6.30
2023-05-19T03:18:59.259Z,6.29
2023-05-19T03:19:31.673Z,6.29
2023-05-19T03:20:04.136Z,6.26
2023-05-19T03:20:36.573Z,6.26
2023-05-19T03:21:08.990Z,6.26
2023-05-19T03:21:41.407Z,6.26
2023-05-19T03:22:13.844Z,6.25
2023-05-19T03:22:46.292Z,6.21
2023-05-19T03:23:18.833Z,6.21
2023-05-19T03:23:51.256Z,6.18
2023-05-19T03:24:23.706Z,6.16
2023-05-19T03:24:56.130Z,6.14
2023-05-19T03:25:28.565Z,6.11
2023-05-19T03:26:01.032Z,6.11
2023-05-19T03:26:33.505Z,6.09
2023-05-19T03:27:05.961Z,6.10
2023-05-19T03:27:38.407Z,6.11
2023-05-19T03:28:10.816Z,6.10
2023-05-19T03:28:43.245Z,6.11
2023-05-19T03:29:15.667Z,6.11
2023-05-19T03:29:48.254Z,6.11
2023-05-19T03:30:20.912Z,6.14
2023-05-19T03:30:53.390Z,6.21
2023-05-19T03:31:25.854Z,6.28
2023-05-19T03:31:58.319Z,6.32
2023-05-19T03:32:30.702Z,6.35
2023-05-19T03:33:03.250Z,6.36
2023-05-19T03:33:35.599Z,6.33
2023-05-19T03:34:08.024Z,6.32
2023-05-19T03:34:40.431Z,6.32
2023-05-19T03:35:12.844Z,6.35
2023-05-19T03:35:45.270Z,6.36
2023-05-19T03:36:17.748Z,6.40
2023-05-19T03:36:50.208Z,6.46
2023-05-19T03:37:22.679Z,6.48
2023-05-19T03:37:55.153Z,6.46
2023-05-19T03:38:27.557Z,6.47
2023-05-19T03:38:59.969Z,6.46
2023-05-19T03:39:32.394Z,6.41
2023-05-19T03:40:04.816Z,6.40
2023-05-19T03:40:37.326Z,6.40
2023-05-19T03:41:09.806Z,6.41
2023-05-19T03:41:42.285Z,6.44
2023-05-19T03:42:14.733Z,6.43
2023-05-19T03:42:47.171Z,6.47
2023-05-19T03:43:19.600Z,6.48
2023-05-19T03:43:52.016Z,6.48
2023-05-19T03:44:24.520Z,6.47
2023-05-19T03:44:56.934Z,6.48
2023-05-19T03:45:29.448Z,6.47
2023-05-19T03:46:01.892Z,6.43
2023-05-19T03:46:34.308Z,6.46
2023-05-19T03:47:06.705Z,6.50
2023-05-19T03:47:39.160Z,6.53
2023-05-19T03:48:11.603Z,6.56
2023-05-19T03:48:44.053Z,6.53
2023-05-19T03:49:16.506Z,6.56
2023-05-19T03:49:48.916Z,6.58
2023-05-19T03:50:21.333Z,6.59
2023-05-19T03:50:53.802Z,6.56
2023-05-19T03:51:26.262Z,6.61
2023-05-19T03:51:58.728Z,6.61
2023-05-19T03:52:31.170Z,6.62
2023-05-19T03:53:03.604Z,6.62
2023-05-19T03:53:36.019Z,6.59
2023-05-19T03:54:08.433Z,6.61
2023-05-19T03:54:40.852Z,6.62
2023-05-19T03:55:13.285Z,6.59
2023-05-19T03:55:45.730Z,6.63
2023-05-19T03:56:18.189Z,6.62
2023-05-19T03:56:50.558Z,6.63
2023-05-19T03:57:23.004Z,6.65
2023-05-19T03:57:55.474Z,6.76
2023-05-19T03:58:27.895Z,6.76
2023-05-19T03:59:00.339Z,6.81
2023-05-19T03:59:32.781Z,6.84
2023-05-19T04:00:05.246Z,6.89
2023-05-19T04:00:37.678Z,6.90
2023-05-19T04:01:10.142Z,6.95
2023-05-19T04:01:42.576Z,6.99
2023-05-19T04:02:16.501Z,7.01
2023-05-19T04:02:47.492Z,7.04
2023-05-19T04:03:20.008Z,7.09
2023-05-19T04:03:52.345Z,7.09
2023-05-19T04:04:24.870Z,7.08
2023-05-19T04:04:57.283Z,7.07
2023-05-19T04:05:29.672Z,7.07
2023-05-19T04:06:02.123Z,7.07
2023-05-19T04:06:34.561Z,7.08
2023-05-19T04:07:07.006Z,7.08
2023-05-19T04:07:39.425Z,7.09
2023-05-19T04:08:11.851Z,7.12
2023-05-19T04:08:44.284Z,7.16
2023-05-19T04:09:16.718Z,7.16
2023-05-19T04:09:49.145Z,7.16
2023-05-19T04:10:21.590Z,7.13
2023-05-19T04:10:54.031Z,7.13
2023-05-19T04:11:26.466Z,7.13
2023-05-19T04:11:58.898Z,7.13
2023-05-19T04:12:31.336Z,7.12
2023-05-19T04:13:03.801Z,7.08
2023-05-19T04:13:36.242Z,7.12
2023-05-19T04:14:08.706Z,7.07
2023-05-19T04:14:41.097Z,7.07
2023-05-19T04:15:13.553Z,7.09
2023-05-19T04:15:46.094Z,7.13
2023-05-19T04:16:18.513Z,7.15
2023-05-19T04:16:50.907Z,7.12
2023-05-19T04:17:23.403Z,7.15
2023-05-19T04:17:55.875Z,7.17
2023-05-19T04:18:29.017Z,7.16
2023-05-19T04:19:00.986Z,7.17
2023-05-19T04:19:33.349Z,7.20
2023-05-19T04:20:05.793Z,7.24
2023-05-19T04:20:38.239Z,7.26
2023-05-19T04:21:10.645Z,7.27
2023-05-19T04:21:43.068Z,7.32
2023-05-19T04:22:15.516Z,7.35
2023-05-19T04:22:47.986Z,7.35
2023-05-19T04:23:20.434Z,7.32
2023-05-19T04:23:52.882Z,7.38
2023-05-19T04:24:25.301Z,7.40
2023-05-19T04:24:57.719Z,7.42
2023-05-19T04:25:30.142Z,7.45
2023-05-19T04:26:02.562Z,7.49
2023-05-19T04:26:34.996Z,7.52
2023-05-19T04:27:07.448Z,7.53
2023-05-19T04:27:39.904Z,7.50
2023-05-19T04:28:12.393Z,7.50
2023-05-19T04:28:44.843Z,7.47
2023-05-19T04:29:17.272Z,7.47
2023-05-19T04:29:49.756Z,7.42
2023-05-19T04:30:22.458Z,7.44
2023-05-19T04:30:54.664Z,7.42
2023-05-19T04:31:27.145Z,7.44
2023-05-19T04:31:59.504Z,7.41
2023-05-19T04:32:31.928Z,7.44
2023-05-19T04:33:04.402Z,7.45
2023-05-19T04:33:36.815Z,7.49
2023-05-19T04:34:09.244Z,7.49
2023-05-19T04:34:41.688Z,7.50
2023-05-19T04:35:14.200Z,7.50
2023-05-19T04:35:46.641Z,7.49
2023-05-19T04:36:19.111Z,7.45
2023-05-19T04:36:53.196Z,7.45
2023-05-19T04:37:24.013Z,7.44
2023-05-19T04:37:56.450Z,7.47
2023-05-19T04:38:28.906Z,7.45
2023-05-19T04:39:01.322Z,7.44
2023-05-19T04:39:33.746Z,7.42
2023-05-19T04:40:06.204Z,7.42
2023-05-19T04:40:38.661Z,7.40
2023-05-19T04:41:11.127Z,7.40
2023-05-19T04:41:43.549Z,7.40
2023-05-19T04:42:15.996Z,7.38
2023-05-19T04:42:48.427Z,7.37
2023-05-19T04:43:20.866Z,7.41
2023-05-19T04:43:53.353Z,7.41
2023-05-19T04:44:25.828Z,7.44
2023-05-19T04:44:58.305Z,7.47
2023-05-19T04:45:30.746Z,7.56
2023-05-19T04:46:03.445Z,7.63
2023-05-19T04:46:35.927Z,7.72
2023-05-19T04:47:08.404Z,7.72
2023-05-19T04:47:40.784Z,7.78
2023-05-19T04:48:13.210Z,7.79
2023-05-19T04:48:45.630Z,7.85
2023-05-19T04:49:18.239Z,7.90
2023-05-19T04:49:50.652Z,7.93
2023-05-19T04:50:23.110Z,7.96
2023-05-19T04:50:55.567Z,7.96
2023-05-19T04:51:29.234Z,7.96
2023-05-19T04:52:00.471Z,7.96
2023-05-19T04:52:32.919Z,7.97
2023-05-19T04:53:05.391Z,8.02
2023-05-19T04:53:37.870Z,8.07
2023-05-19T04:54:10.356Z,8.12
2023-05-19T04:54:42.814Z,8.15
2023-05-19T04:55:15.366Z,8.17
2023-05-19T04:55:47.882Z,8.17
2023-05-19T04:56:20.301Z,8.18
2023-05-19T04:56:52.757Z,8.18
2023-05-19T04:57:25.314Z,8.21
2023-05-19T04:57:57.791Z,8.21
2023-05-19T04:58:30.266Z,8.25
2023-05-19T04:59:02.696Z,8.26
2023-05-19T04:59:35.138Z,8.29
2023-05-19T05:00:07.682Z,8.30
2023-05-19T05:00:40.157Z,8.32
2023-05-19T05:01:12.600Z,8.32
2023-05-19T05:01:45.067Z,8.35
2023-05-19T05:02:17.582Z,8.36
2023-05-19T05:02:50.017Z,8.40
2023-05-19T05:03:22.506Z,8.40
2023-05-19T05:03:54.865Z,8.45
2023-05-19T05:04:27.279Z,8.45
2023-05-19T05:04:59.741Z,8.47
2023-05-19T05:05:32.212Z,8.53
2023-05-19T05:06:04.679Z,8.55
2023-05-19T05:06:37.077Z,8.62
2023-05-19T05:07:09.579Z,8.66
2023-05-19T05:07:42.077Z,8.69
2023-05-19T05:08:14.513Z,8.69
2023-05-19T05:08:47.102Z,8.73
2023-05-19T05:09:19.715Z,8.78
2023-05-19T05:09:52.193Z,8.84
2023-05-19T05:10:24.627Z,8.87
2023-05-19T05:10:57.078Z,8.88
2023-05-19T05:11:29.676Z,8.91
2023-05-19T05:12:02.120Z,8.91
2023-05-19T05:12:34.583Z,8.94
2023-05-19T05:13:07.059Z,8.97
2023-05-19T05:13:39.520Z,9.02
2023-05-19T05:14:11.979Z,9.05
2023-05-19T05:14:44.559Z,9.06
2023-05-19T05:15:17.017Z,9.06
2023-05-19T05:15:49.504Z,9.10
2023-05-19T05:16:21.987Z,9.13
2023-05-19T05:16:54.507Z,9.18
2023-05-19T05:17:26.921Z,9.24
2023-05-19T05:17:59.352Z,9.28
2023-05-19T05:18:31.775Z,9.34
2023-05-19T05:19:04.245Z,9.39
2023-05-19T05:19:36.674Z,9.40
2023-05-19T05:20:09.128Z,9.45
2023-05-19T05:20:41.569Z,9.48
2023-05-19T05:21:14.013Z,9.50
2023-05-19T05:21:46.424Z,9.52
2023-05-19T05:22:18.882Z,9.57
2023-05-19T05:22:51.320Z,9.61
2023-05-19T05:23:23.830Z,9.67
2023-05-19T05:23:56.263Z,9.70
2023-05-19T05:24:28.701Z,9.73
2023-05-19T05:25:01.134Z,9.78
2023-05-19T05:25:33.792Z,9.82
2023-05-19T05:26:06.022Z,9.85
2023-05-19T05:26:38.483Z,9.89
2023-05-19T05:27:10.905Z,9.93
2023-05-19T05:27:43.345Z,9.97
2023-05-19T05:28:15.794Z,10.00
2023-05-19T05:28:48.244Z,10.06
2023-05-19T05:29:20.696Z,10.09
2023-05-19T05:29:53.125Z,10.14
2023-05-19T05:30:25.536Z,10.18
2023-05-19T05:30:57.957Z,10.24
2023-05-19T05:31:30.420Z,10.28
2023-05-19T05:32:02.871Z,10.33
2023-05-19T05:32:35.431Z,10.36
2023-05-19T05:33:07.830Z,10.39
2023-05-19T05:33:40.242Z,10.42
2023-05-19T05:34:12.651Z,10.44
2023-05-19T05:34:45.109Z,10.51
2023-05-19T05:35:17.562Z,10.53
2023-05-19T05:35:49.993Z,10.56
2023-05-19T05:36:22.432Z,10.59
2023-05-19T05:36:54.826Z,10.65
2023-05-19T05:37:27.291Z,10.71
2023-05-19T05:37:59.738Z,10.77
2023-05-19T05:38:32.178Z,10.80
2023-05-19T05:39:04.672Z,10.86
2023-05-19T05:39:37.129Z,10.91
2023-05-19T05:40:09.564Z,10.92
2023-05-19T05:40:41.978Z,10.99
2023-05-19T05:41:14.408Z,11.03
2023-05-19T05:41:46.898Z,11.10
2023-05-19T05:42:19.363Z,11.14
2023-05-19T05:42:51.810Z,11.21
2023-05-19T05:43:24.236Z,11.28
2023-05-19T05:43:56.683Z,11.35
2023-05-19T05:44:29.124Z,11.38
2023-05-19T05:45:01.538Z,11.44
2023-05-19T05:45:34.216Z,11.50
2023-05-19T05:46:06.441Z,11.57
2023-05-19T05:46:38.863Z,11.65
2023-05-19T05:47:11.325Z,11.74
2023-05-19T05:47:43.797Z,11.80
2023-05-19T05:48:16.274Z,11.93
2023-05-19T05:48:48.680Z,12.02
2023-05-19T05:49:21.104Z,12.13
2023-05-19T05:49:53.698Z,12.26
2023-05-19T05:50:26.031Z,12.39
2023-05-19T05:50:58.479Z,12.52
2023-05-19T05:51:30.902Z,12.69
2023-05-19T05:52:06.174Z,12.85
2023-05-19T05:52:35.810Z,13.07
2023-05-19T05:53:08.236Z,13.27
2023-05-19T05:53:40.672Z,13.47
2023-05-19T05:54:13.108Z,13.69
2023-05-19T05:54:45.567Z,13.92
2023-05-19T05:55:17.992Z,14.16
2023-05-19T05:55:50.448Z,14.38
2023-05-19T05:56:22.886Z,14.62
2023-05-19T05:56:55.340Z,14.87
2023-05-19T05:57:27.801Z,15.11
2023-05-19T05:58:00.288Z,15.39
2023-05-19T05:58:32.786Z,15.66
2023-05-19T05:59:05.253Z,15.92
2023-05-19T05:59:37.699Z,16.14
2023-05-19T06:00:10.137Z,16.33
2023-05-19T06:00:42.625Z,16.58
2023-05-19T06:01:15.083Z,16.83
2023-05-19T06:01:47.520Z,17.04
2023-05-19T06:02:20.005Z,17.25
2023-05-19T06:02:52.504Z,17.38
2023-05-19T06:03:24.951Z,17.51
2023-05-19T06:03:57.266Z,17.64
2023-05-19T06:04:29.720Z,17.84
2023-05-19T06:05:02.181Z,18.06
2023-05-19T06:05:34.663Z,18.27
2023-05-19T06:06:07.101Z,18.44
2023-05-19T06:06:39.560Z,18.59
2023-05-19T06:07:12.027Z,18.67
2023-05-19T06:07:44.520Z,18.79
2023-05-19T06:08:17.246Z,18.87
2023-05-19T06:08:49.789Z,18.94
2023-05-19T06:09:22.281Z,19.05
2023-05-19T06:09:54.767Z,19.23
2023-05-19T06:10:27.231Z,19.36
2023-05-19T06:10:59.667Z,19.36
2023-05-19T06:11:32.139Z,19.18
2023-05-19T06:12:04.602Z,18.92
2023-05-19T06:12:37.047Z,18.67
2023-05-19T06:13:09.521Z,18.40
2023-05-19T06:13:42.008Z,18.17
2023-05-19T06:14:14.412Z,17.94
2023-05-19T06:14:46.816Z,17.92
2023-05-19T06:15:19.294Z,18.13
2023-05-19T06:15:51.774Z,18.42
2023-05-19T06:16:24.177Z,18.77
2023-05-19T06:16:56.630Z,18.97
2023-05-19T06:17:29.123Z,19.20
2023-05-19T06:18:01.548Z,19.25
2023-05-19T06:18:33.921Z,19.25
2023-05-19T06:19:06.459Z,19.25
2023-05-19T06:19:38.825Z,19.36
2023-05-19T06:20:11.342Z,19.50
2023-05-19T06:20:43.769Z,19.63
2023-05-19T06:21:16.215Z,19.72
2023-05-19T06:21:48.661Z,19.73
2023-05-19T06:22:21.115Z,19.87
2023-05-19T06:22:53.573Z,19.95
2023-05-19T06:23:26.013Z,20.03
2023-05-19T06:23:58.547Z,20.10
2023-05-19T06:24:31.043Z,20.30
2023-05-19T06:25:03.622Z,20.49
2023-05-19T06:25:36.048Z,20.68
2023-05-19T06:26:08.517Z,20.86
2023-05-19T06:26:40.955Z,21.01
2023-05-19T06:27:13.392Z,21.06
2023-05-19T06:27:45.859Z,21.14
2023-05-19T06:28:18.359Z,21.17
2023-05-19T06:28:50.809Z,21.23
2023-05-19T06:29:23.256Z,21.27
2023-05-19T06:29:55.729Z,21.41
2023-05-19T06:30:28.195Z,21.35
2023-05-19T06:31:00.728Z,21.41
2023-05-19T06:31:33.227Z,21.38
2023-05-19T06:32:05.593Z,21.38
2023-05-19T06:32:38.224Z,21.56
2023-05-19T06:33:10.662Z,21.67
2023-05-19T06:33:43.104Z,21.83
2023-05-19T06:34:15.691Z,21.91
2023-05-19T06:34:48.260Z,21.98
2023-05-19T06:35:20.737Z,22.09
2023-05-19T06:35:53.326Z,22.12
2023-05-19T06:36:25.757Z,22.14
2023-05-19T06:36:58.203Z,22.23
2023-05-19T06:37:30.628Z,22.32
2023-05-19T06:38:03.080Z,22.53
2023-05-19T06:38:35.553Z,22.60
2023-05-19T06:39:08.005Z,22.68
2023-05-19T06:39:40.414Z,22.59
2023-05-19T06:40:12.864Z,22.59
2023-05-19T06:40:45.326Z,22.62
2023-05-19T06:41:17.782Z,22.62
2023-05-19T06:41:50.229Z,22.62
2023-05-19T06:42:22.777Z,22.59
2023-05-19T06:42:55.212Z,22.60
2023-05-19T06:43:27.672Z,22.67
2023-05-19T06:44:00.119Z,22.72
2023-05-19T06:44:32.586Z,22.72
2023-05-19T06:45:05.047Z,22.75
2023-05-19T06:45:37.479Z,22.83
2023-05-19T06:46:09.923Z,22.92
2023-05-19T06:46:42.470Z,22.99
2023-05-19T06:47:14.988Z,23.01
2023-05-19T06:47:47.404Z,23.02
2023-05-19T06:48:19.825Z,22.97
2023-05-19T06:48:52.351Z,22.94
2023-05-19T06:49:24.800Z,22.93
2023-05-19T06:49:57.729Z,22.96
2023-05-19T06:50:30.234Z,23.02
2023-05-19T06:51:02.594Z,23.05
2023-05-19T06:51:35.042Z,23.19
2023-05-19T06:52:07.499Z,23.39
2023-05-19T06:52:39.975Z,23.58
2023-05-19T06:53:12.464Z,23.67
2023-05-19T06:53:44.953Z,23.75
2023-05-19T06:54:17.403Z,23.86
2023-05-19T06:54:49.821Z,24.00
2023-05-19T06:55:22.274Z,24.20
2023-05-19T06:55:59.366Z,24.45
2023-05-19T06:56:27.361Z,24.71
2023-05-19T06:56:59.810Z,25.01
2023-05-19T06:57:32.275Z,25.20
2023-05-19T06:58:04.735Z,25.53
2023-05-19T06:58:37.246Z,25.75
2023-05-19T06:59:09.640Z,25.93
2023-05-19T06:59:42.091Z,25.99
2023-05-19T07:00:17.615Z,26.06
2023-05-19T07:00:47.038Z,26.18
2023-05-19T07:01:19.554Z,26.28
2023-05-19T07:01:52.101Z,26.31
2023-05-19T07:02:24.501Z,26.25
2023-05-19T07:02:57.024Z,26.24
2023-05-19T07:03:29.486Z,26.25
2023-05-19T07:04:02.021Z,26.22
2023-05-19T07:04:34.352Z,26.32
2023-05-19T07:05:06.809Z,26.46
2023-05-19T07:05:39.271Z,26.55
2023-05-19T07:06:11.812Z,26.76
2023-05-19T07:06:44.263Z,26.96
2023-05-19T07:07:16.709Z,27.09
2023-05-19T07:07:49.166Z,27.16
2023-05-19T07:08:21.659Z,27.19
2023-05-19T07:08:54.110Z,27.14